sensor_id;sensor_type;location;lat;lon;timestamp;P1;durP1;ratioP1;P2;durP2;ratioP2
12663;SDS011;6396;58.490;15.528;2022-10-16T00:02:05;7.93;;;7.13;;
12663;SDS011;6396;58.490;15.528;2022-10-16T00:04:31;7.93;;;6.93;;
12663;SDS011;6396;58.490;15.528;2022-10-16T00:06:58;7.30;;;6.60;;
12663;SDS011;6396;58.490;15.528;2022-10-16T00:09:25;7.50;;;6.80;;
12663;SDS011;6396;58.490;15.528;2022-10-16T00:11:52;7.80;;;7.00;;
12663;SDS011;6396;58.490;15.528;2022-10-16T00:14:20;8.70;;;6.73;;
12663;SDS011;6396;58.490;15.528;2022-10-16T00:16:47;7.93;;;7.17;;
12663;SDS011;6396;58.490;15.528;2022-10-16T00:19:13;8.40;;;6.37;;
12663;SDS011;6396;58.490;15.528;2022-10-16T00:21:41;7.17;;;6.47;;
12663;SDS011;6396;58.490;15.528;2022-10-16T00:24:08;7.20;;;6.50;;
12663;SDS011;6396;58.490;15.528;2022-10-16T00:26:37;6.77;;;6.07;;
12663;SDS011;6396;58.490;15.528;2022-10-16T00:29:04;9.23;;;5.67;;
12663;SDS011;6396;58.490;15.528;2022-10-16T00:31:33;7.20;;;5.90;;
12663;SDS011;6396;58.490;15.528;2022-10-16T00:34:00;7.10;;;6.07;;
12663;SDS011;6396;58.490;15.528;2022-10-16T00:36:27;9.30;;;6.63;;
12663;SDS011;6396;58.490;15.528;2022-10-16T00:38:56;7.70;;;6.30;;
12663;SDS011;6396;58.490;15.528;2022-10-16T00:41:25;7.20;;;6.50;;
12663;SDS011;6396;58.490;15.528;2022-10-16T00:43:53;9.43;;;6.67;;
12663;SDS011;6396;58.490;15.528;2022-10-16T00:46:22;7.07;;;6.33;;
12663;SDS011;6396;58.490;15.528;2022-10-16T00:48:52;7.40;;;6.33;;
12663;SDS011;6396;58.490;15.528;2022-10-16T00:51:25;6.53;;;5.93;;
12663;SDS011;6396;58.490;15.528;2022-10-16T00:53:54;6.30;;;5.57;;
12663;SDS011;6396;58.490;15.528;2022-10-16T00:56:21;5.63;;;5.13;;
12663;SDS011;6396;58.490;15.528;2022-10-16T00:58:48;6.70;;;6.00;;
12663;SDS011;6396;58.490;15.528;2022-10-16T01:01:15;7.57;;;6.00;;
12663;SDS011;6396;58.490;15.528;2022-10-16T01:03:42;6.00;;;5.50;;
12663;SDS011;6396;58.490;15.528;2022-10-16T01:09:02;6.70;;;5.73;;
12663;SDS011;6396;58.490;15.528;2022-10-16T01:11:38;8.10;;;6.00;;
12663;SDS011;6396;58.490;15.528;2022-10-16T01:14:11;6.63;;;6.00;;
12663;SDS011;6396;58.490;15.528;2022-10-16T01:16:46;8.97;;;6.10;;
12663;SDS011;6396;58.490;15.528;2022-10-16T01:19:19;9.83;;;5.77;;
12663;SDS011;6396;58.490;15.528;2022-10-16T01:21:54;7.53;;;6.40;;
12663;SDS011;6396;58.490;15.528;2022-10-16T01:24:27;8.43;;;6.87;;
12663;SDS011;6396;58.490;15.528;2022-10-16T01:27:06;5.53;;;5.03;;
12663;SDS011;6396;58.490;15.528;2022-10-16T01:29:37;7.63;;;5.93;;
12663;SDS011;6396;58.490;15.528;2022-10-16T01:32:13;7.43;;;6.40;;
12663;SDS011;6396;58.490;15.528;2022-10-16T01:34:46;6.57;;;5.03;;
12663;SDS011;6396;58.490;15.528;2022-10-16T01:37:18;6.00;;;5.40;;
12663;SDS011;6396;58.490;15.528;2022-10-16T01:39:55;8.23;;;5.73;;
12663;SDS011;6396;58.490;15.528;2022-10-16T01:42:30;6.93;;;5.73;;
12663;SDS011;6396;58.490;15.528;2022-10-16T01:45:01;6.83;;;5.83;;
12663;SDS011;6396;58.490;15.528;2022-10-16T01:47:31;7.60;;;6.37;;
12663;SDS011;6396;58.490;15.528;2022-10-16T01:49:59;7.43;;;6.23;;
12663;SDS011;6396;58.490;15.528;2022-10-16T01:52:29;6.20;;;5.60;;
12663;SDS011;6396;58.490;15.528;2022-10-16T01:54:59;6.73;;;6.10;;
12663;SDS011;6396;58.490;15.528;2022-10-16T01:57:30;6.37;;;5.77;;
12663;SDS011;6396;58.490;15.528;2022-10-16T02:00:00;7.50;;;5.90;;
12663;SDS011;6396;58.490;15.528;2022-10-16T02:02:30;7.43;;;4.97;;
12663;SDS011;6396;58.490;15.528;2022-10-16T02:04:58;8.20;;;5.07;;
12663;SDS011;6396;58.490;15.528;2022-10-16T02:07:30;11.87;;;5.73;;
12663;SDS011;6396;58.490;15.528;2022-10-16T02:09:57;7.80;;;6.40;;
12663;SDS011;6396;58.490;15.528;2022-10-16T02:12:25;6.77;;;5.83;;
12663;SDS011;6396;58.490;15.528;2022-10-16T02:14:56;6.43;;;5.53;;
12663;SDS011;6396;58.490;15.528;2022-10-16T02:17:23;8.50;;;7.00;;
12663;SDS011;6396;58.490;15.528;2022-10-16T02:19:50;7.17;;;6.10;;
12663;SDS011;6396;58.490;15.528;2022-10-16T02:22:21;7.43;;;6.13;;
12663;SDS011;6396;58.490;15.528;2022-10-16T02:24:51;6.67;;;5.77;;
12663;SDS011;6396;58.490;15.528;2022-10-16T02:27:23;7.23;;;6.50;;
12663;SDS011;6396;58.490;15.528;2022-10-16T02:29:57;7.17;;;5.80;;
12663;SDS011;6396;58.490;15.528;2022-10-16T02:32:32;6.53;;;5.93;;
12663;SDS011;6396;58.490;15.528;2022-10-16T02:35:02;10.37;;;5.80;;
12663;SDS011;6396;58.490;15.528;2022-10-16T02:37:30;6.10;;;5.50;;
12663;SDS011;6396;58.490;15.528;2022-10-16T02:39:58;7.67;;;5.77;;
12663;SDS011;6396;58.490;15.528;2022-10-16T02:42:27;6.40;;;5.47;;
12663;SDS011;6396;58.490;15.528;2022-10-16T02:44:57;6.77;;;6.07;;
12663;SDS011;6396;58.490;15.528;2022-10-16T02:47:24;7.40;;;5.93;;
12663;SDS011;6396;58.490;15.528;2022-10-16T02:49:50;6.27;;;5.50;;
12663;SDS011;6396;58.490;15.528;2022-10-16T02:52:17;6.23;;;5.63;;
12663;SDS011;6396;58.490;15.528;2022-10-16T02:54:44;7.90;;;5.90;;
12663;SDS011;6396;58.490;15.528;2022-10-16T02:57:11;7.63;;;5.67;;
12663;SDS011;6396;58.490;15.528;2022-10-16T02:59:38;7.37;;;5.87;;
12663;SDS011;6396;58.490;15.528;2022-10-16T03:02:06;6.80;;;5.17;;
12663;SDS011;6396;58.490;15.528;2022-10-16T03:04:33;6.17;;;5.43;;
12663;SDS011;6396;58.490;15.528;2022-10-16T03:07:00;6.87;;;5.53;;
12663;SDS011;6396;58.490;15.528;2022-10-16T03:09:27;6.60;;;5.90;;
12663;SDS011;6396;58.490;15.528;2022-10-16T03:11:53;6.03;;;5.43;;
12663;SDS011;6396;58.490;15.528;2022-10-16T03:14:20;6.90;;;5.93;;
12663;SDS011;6396;58.490;15.528;2022-10-16T03:16:47;7.17;;;6.47;;
12663;SDS011;6396;58.490;15.528;2022-10-16T03:19:17;6.63;;;5.47;;
12663;SDS011;6396;58.490;15.528;2022-10-16T03:21:44;7.87;;;6.07;;
12663;SDS011;6396;58.490;15.528;2022-10-16T03:24:11;7.53;;;5.93;;
12663;SDS011;6396;58.490;15.528;2022-10-16T03:26:37;6.33;;;5.73;;
12663;SDS011;6396;58.490;15.528;2022-10-16T03:29:04;9.73;;;6.50;;
12663;SDS011;6396;58.490;15.528;2022-10-16T03:31:31;9.17;;;6.70;;
12663;SDS011;6396;58.490;15.528;2022-10-16T03:33:58;8.20;;;6.37;;
12663;SDS011;6396;58.490;15.528;2022-10-16T03:36:27;7.83;;;6.50;;
12663;SDS011;6396;58.490;15.528;2022-10-16T03:38:53;7.13;;;6.10;;
12663;SDS011;6396;58.490;15.528;2022-10-16T03:41:20;8.87;;;7.10;;
12663;SDS011;6396;58.490;15.528;2022-10-16T03:43:47;8.57;;;6.37;;
12663;SDS011;6396;58.490;15.528;2022-10-16T03:46:14;7.47;;;6.10;;
12663;SDS011;6396;58.490;15.528;2022-10-16T03:48:40;7.47;;;6.77;;
12663;SDS011;6396;58.490;15.528;2022-10-16T03:51:07;8.77;;;6.43;;
12663;SDS011;6396;58.490;15.528;2022-10-16T03:53:35;12.00;;;6.77;;
12663;SDS011;6396;58.490;15.528;2022-10-16T03:56:02;8.50;;;6.30;;
12663;SDS011;6396;58.490;15.528;2022-10-16T03:58:29;7.40;;;5.47;;
12663;SDS011;6396;58.490;15.528;2022-10-16T04:00:55;7.37;;;6.43;;
12663;SDS011;6396;58.490;15.528;2022-10-16T04:03:22;7.20;;;6.50;;
12663;SDS011;6396;58.490;15.528;2022-10-16T04:05:49;9.37;;;7.20;;
12663;SDS011;6396;58.490;15.528;2022-10-16T04:08:16;7.27;;;6.57;;
12663;SDS011;6396;58.490;15.528;2022-10-16T04:10:44;8.77;;;6.80;;
12663;SDS011;6396;58.490;15.528;2022-10-16T04:13:12;6.97;;;5.97;;
12663;SDS011;6396;58.490;15.528;2022-10-16T04:15:39;7.03;;;6.33;;
12663;SDS011;6396;58.490;15.528;2022-10-16T04:18:06;6.90;;;6.20;;
12663;SDS011;6396;58.490;15.528;2022-10-16T04:20:33;8.53;;;6.43;;
12663;SDS011;6396;58.490;15.528;2022-10-16T04:23:00;7.43;;;6.40;;
12663;SDS011;6396;58.490;15.528;2022-10-16T04:25:27;7.70;;;6.17;;
12663;SDS011;6396;58.490;15.528;2022-10-16T04:27:55;6.40;;;5.80;;
12663;SDS011;6396;58.490;15.528;2022-10-16T04:30:23;8.13;;;6.30;;
12663;SDS011;6396;58.490;15.528;2022-10-16T04:32:50;7.10;;;6.40;;
12663;SDS011;6396;58.490;15.528;2022-10-16T04:35:17;7.80;;;6.40;;
12663;SDS011;6396;58.490;15.528;2022-10-16T04:37:44;7.37;;;6.50;;
12663;SDS011;6396;58.490;15.528;2022-10-16T04:40:11;7.07;;;6.17;;
12663;SDS011;6396;58.490;15.528;2022-10-16T04:42:38;6.67;;;6.07;;
12663;SDS011;6396;58.490;15.528;2022-10-16T04:45:07;7.77;;;6.10;;
12663;SDS011;6396;58.490;15.528;2022-10-16T04:47:35;6.70;;;6.00;;
12663;SDS011;6396;58.490;15.528;2022-10-16T04:50:01;7.30;;;6.00;;
12663;SDS011;6396;58.490;15.528;2022-10-16T04:52:28;6.83;;;5.90;;
12663;SDS011;6396;58.490;15.528;2022-10-16T04:54:56;6.80;;;6.10;;
12663;SDS011;6396;58.490;15.528;2022-10-16T04:57:27;6.80;;;6.00;;
12663;SDS011;6396;58.490;15.528;2022-10-16T04:59:54;7.13;;;6.07;;
12663;SDS011;6396;58.490;15.528;2022-10-16T05:02:23;9.03;;;5.97;;
12663;SDS011;6396;58.490;15.528;2022-10-16T05:04:49;6.53;;;5.87;;
12663;SDS011;6396;58.490;15.528;2022-10-16T05:07:16;6.97;;;5.87;;
12663;SDS011;6396;58.490;15.528;2022-10-16T05:09:43;6.47;;;5.87;;
12663;SDS011;6396;58.490;15.528;2022-10-16T05:12:10;6.70;;;6.00;;
12663;SDS011;6396;58.490;15.528;2022-10-16T05:14:37;9.73;;;6.10;;
12663;SDS011;6396;58.490;15.528;2022-10-16T05:17:03;6.60;;;5.87;;
12663;SDS011;6396;58.490;15.528;2022-10-16T05:19:32;7.93;;;6.43;;
12663;SDS011;6396;58.490;15.528;2022-10-16T05:21:58;8.03;;;6.60;;
12663;SDS011;6396;58.490;15.528;2022-10-16T05:24:25;8.47;;;7.30;;
12663;SDS011;6396;58.490;15.528;2022-10-16T05:26:52;7.80;;;7.00;;
12663;SDS011;6396;58.490;15.528;2022-10-16T05:29:19;8.23;;;6.90;;
12663;SDS011;6396;58.490;15.528;2022-10-16T05:31:46;8.23;;;7.07;;
12663;SDS011;6396;58.490;15.528;2022-10-16T05:34:16;7.30;;;6.53;;
12663;SDS011;6396;58.490;15.528;2022-10-16T05:36:44;7.33;;;6.63;;
12663;SDS011;6396;58.490;15.528;2022-10-16T05:39:11;7.73;;;6.93;;
12663;SDS011;6396;58.490;15.528;2022-10-16T05:41:38;7.20;;;6.43;;
12663;SDS011;6396;58.490;15.528;2022-10-16T05:44:05;7.40;;;6.57;;
12663;SDS011;6396;58.490;15.528;2022-10-16T05:46:32;7.10;;;6.40;;
12663;SDS011;6396;58.490;15.528;2022-10-16T05:48:59;7.67;;;6.77;;
12663;SDS011;6396;58.490;15.528;2022-10-16T05:51:26;7.90;;;6.43;;
12663;SDS011;6396;58.490;15.528;2022-10-16T05:53:54;8.43;;;6.67;;
12663;SDS011;6396;58.490;15.528;2022-10-16T05:56:21;7.50;;;6.57;;
12663;SDS011;6396;58.490;15.528;2022-10-16T05:58:47;8.00;;;6.90;;
12663;SDS011;6396;58.490;15.528;2022-10-16T06:01:15;8.53;;;6.43;;
12663;SDS011;6396;58.490;15.528;2022-10-16T06:03:43;8.27;;;6.47;;
12663;SDS011;6396;58.490;15.528;2022-10-16T06:06:10;7.47;;;5.83;;
12663;SDS011;6396;58.490;15.528;2022-10-16T06:08:38;8.77;;;6.47;;
12663;SDS011;6396;58.490;15.528;2022-10-16T06:11:07;7.47;;;6.03;;
12663;SDS011;6396;58.490;15.528;2022-10-16T06:13:35;6.80;;;6.10;;
12663;SDS011;6396;58.490;15.528;2022-10-16T06:16:02;6.60;;;5.90;;
12663;SDS011;6396;58.490;15.528;2022-10-16T06:18:30;8.77;;;6.47;;
12663;SDS011;6396;58.490;15.528;2022-10-16T06:20:57;7.80;;;7.00;;
12663;SDS011;6396;58.490;15.528;2022-10-16T06:23:24;7.57;;;5.80;;
12663;SDS011;6396;58.490;15.528;2022-10-16T06:25:51;6.63;;;6.03;;
12663;SDS011;6396;58.490;15.528;2022-10-16T06:28:19;7.33;;;6.57;;
12663;SDS011;6396;58.490;15.528;2022-10-16T06:30:46;6.30;;;5.53;;
12663;SDS011;6396;58.490;15.528;2022-10-16T06:33:13;7.87;;;6.13;;
12663;SDS011;6396;58.490;15.528;2022-10-16T06:35:39;6.73;;;6.10;;
12663;SDS011;6396;58.490;15.528;2022-10-16T06:38:06;8.50;;;5.63;;
12663;SDS011;6396;58.490;15.528;2022-10-16T06:40:33;8.70;;;5.90;;
12663;SDS011;6396;58.490;15.528;2022-10-16T06:42:59;5.67;;;5.07;;
12663;SDS011;6396;58.490;15.528;2022-10-16T06:45:28;7.00;;;6.07;;
12663;SDS011;6396;58.490;15.528;2022-10-16T06:47:54;6.70;;;5.93;;
12663;SDS011;6396;58.490;15.528;2022-10-16T06:50:21;7.93;;;6.27;;
12663;SDS011;6396;58.490;15.528;2022-10-16T06:52:48;5.93;;;5.40;;
12663;SDS011;6396;58.490;15.528;2022-10-16T06:55:15;6.73;;;6.03;;
12663;SDS011;6396;58.490;15.528;2022-10-16T06:57:43;6.87;;;5.70;;
12663;SDS011;6396;58.490;15.528;2022-10-16T07:00:10;6.73;;;6.03;;
12663;SDS011;6396;58.490;15.528;2022-10-16T07:02:38;8.53;;;5.83;;
12663;SDS011;6396;58.490;15.528;2022-10-16T07:05:05;7.00;;;6.10;;
12663;SDS011;6396;58.490;15.528;2022-10-16T07:07:32;7.00;;;6.20;;
12663;SDS011;6396;58.490;15.528;2022-10-16T07:09:59;7.83;;;6.60;;
12663;SDS011;6396;58.490;15.528;2022-10-16T07:12:26;8.17;;;5.87;;
12663;SDS011;6396;58.490;15.528;2022-10-16T07:14:53;6.77;;;5.93;;
12663;SDS011;6396;58.490;15.528;2022-10-16T07:17:20;7.53;;;6.00;;
12663;SDS011;6396;58.490;15.528;2022-10-16T07:19:50;6.47;;;5.80;;
12663;SDS011;6396;58.490;15.528;2022-10-16T07:22:18;6.47;;;5.87;;
12663;SDS011;6396;58.490;15.528;2022-10-16T07:24:45;7.17;;;6.17;;
12663;SDS011;6396;58.490;15.528;2022-10-16T07:27:11;7.27;;;6.30;;
12663;SDS011;6396;58.490;15.528;2022-10-16T07:29:38;7.10;;;5.87;;
12663;SDS011;6396;58.490;15.528;2022-10-16T07:32:05;6.50;;;5.83;;
12663;SDS011;6396;58.490;15.528;2022-10-16T07:34:32;8.60;;;6.40;;
12663;SDS011;6396;58.490;15.528;2022-10-16T07:37:00;6.43;;;5.53;;
12663;SDS011;6396;58.490;15.528;2022-10-16T07:39:27;8.37;;;5.90;;
12663;SDS011;6396;58.490;15.528;2022-10-16T07:41:53;9.53;;;6.60;;
12663;SDS011;6396;58.490;15.528;2022-10-16T07:44:20;7.97;;;5.83;;
12663;SDS011;6396;58.490;15.528;2022-10-16T07:46:47;7.00;;;6.00;;
12663;SDS011;6396;58.490;15.528;2022-10-16T07:49:14;8.13;;;5.93;;
12663;SDS011;6396;58.490;15.528;2022-10-16T07:51:41;6.60;;;5.83;;
12663;SDS011;6396;58.490;15.528;2022-10-16T07:54:09;6.50;;;5.80;;
12663;SDS011;6396;58.490;15.528;2022-10-16T07:56:36;7.87;;;5.53;;
12663;SDS011;6396;58.490;15.528;2022-10-16T07:59:03;7.00;;;5.43;;
12663;SDS011;6396;58.490;15.528;2022-10-16T08:01:29;8.47;;;5.40;;
12663;SDS011;6396;58.490;15.528;2022-10-16T08:03:56;10.67;;;5.53;;
12663;SDS011;6396;58.490;15.528;2022-10-16T08:06:23;9.70;;;5.87;;
12663;SDS011;6396;58.490;15.528;2022-10-16T08:08:50;6.43;;;5.20;;
12663;SDS011;6396;58.490;15.528;2022-10-16T08:11:20;7.33;;;5.30;;
12663;SDS011;6396;58.490;15.528;2022-10-16T08:13:49;8.37;;;5.97;;
12663;SDS011;6396;58.490;15.528;2022-10-16T08:16:16;7.90;;;5.43;;
12663;SDS011;6396;58.490;15.528;2022-10-16T08:18:43;8.07;;;5.70;;
12663;SDS011;6396;58.490;15.528;2022-10-16T08:21:12;6.33;;;5.03;;
12663;SDS011;6396;58.490;15.528;2022-10-16T08:23:40;4.90;;;4.17;;
12663;SDS011;6396;58.490;15.528;2022-10-16T08:26:07;7.67;;;4.60;;
12663;SDS011;6396;58.490;15.528;2022-10-16T08:28:36;7.30;;;4.30;;
12663;SDS011;6396;58.490;15.528;2022-10-16T08:31:07;7.27;;;4.70;;
12663;SDS011;6396;58.490;15.528;2022-10-16T08:33:35;5.90;;;4.10;;
12663;SDS011;6396;58.490;15.528;2022-10-16T08:36:02;6.53;;;4.80;;
12663;SDS011;6396;58.490;15.528;2022-10-16T08:38:30;7.47;;;5.20;;
12663;SDS011;6396;58.490;15.528;2022-10-16T08:40:58;5.67;;;4.83;;
12663;SDS011;6396;58.490;15.528;2022-10-16T08:43:47;6.87;;;4.67;;
12663;SDS011;6396;58.490;15.528;2022-10-16T08:46:32;5.70;;;4.33;;
12663;SDS011;6396;58.490;15.528;2022-10-16T08:49:08;5.63;;;4.50;;
12663;SDS011;6396;58.490;15.528;2022-10-16T08:51:39;6.33;;;4.90;;
12663;SDS011;6396;58.490;15.528;2022-10-16T08:54:11;7.37;;;4.90;;
12663;SDS011;6396;58.490;15.528;2022-10-16T08:56:49;6.80;;;4.43;;
12663;SDS011;6396;58.490;15.528;2022-10-16T08:59:17;5.87;;;5.13;;
12663;SDS011;6396;58.490;15.528;2022-10-16T09:01:45;5.50;;;4.57;;
12663;SDS011;6396;58.490;15.528;2022-10-16T09:04:21;3.93;;;3.53;;
12663;SDS011;6396;58.490;15.528;2022-10-16T09:07:09;6.20;;;4.00;;
12663;SDS011;6396;58.490;15.528;2022-10-16T09:12:37;5.67;;;3.80;;
12663;SDS011;6396;58.490;15.528;2022-10-16T09:15:14;6.07;;;4.00;;
12663;SDS011;6396;58.490;15.528;2022-10-16T09:17:53;8.23;;;3.67;;
12663;SDS011;6396;58.490;15.528;2022-10-16T09:20:29;4.87;;;3.83;;
12663;SDS011;6396;58.490;15.528;2022-10-16T09:23:08;7.43;;;4.03;;
12663;SDS011;6396;58.490;15.528;2022-10-16T09:25:41;6.37;;;4.30;;
12663;SDS011;6396;58.490;15.528;2022-10-16T09:28:12;5.07;;;3.43;;
12663;SDS011;6396;58.490;15.528;2022-10-16T09:30:41;4.30;;;3.87;;
12663;SDS011;6396;58.490;15.528;2022-10-16T09:33:09;5.67;;;3.87;;
12663;SDS011;6396;58.490;15.528;2022-10-16T09:35:38;5.93;;;3.80;;
12663;SDS011;6396;58.490;15.528;2022-10-16T09:38:06;5.93;;;3.90;;
12663;SDS011;6396;58.490;15.528;2022-10-16T09:40:34;5.87;;;3.87;;
12663;SDS011;6396;58.490;15.528;2022-10-16T09:43:05;5.57;;;3.40;;
12663;SDS011;6396;58.490;15.528;2022-10-16T09:45:44;8.27;;;4.03;;
12663;SDS011;6396;58.490;15.528;2022-10-16T09:48:20;5.63;;;3.40;;
12663;SDS011;6396;58.490;15.528;2022-10-16T09:50:55;4.60;;;3.27;;
12663;SDS011;6396;58.490;15.528;2022-10-16T09:53:22;4.17;;;3.63;;
12663;SDS011;6396;58.490;15.528;2022-10-16T09:55:50;6.53;;;3.37;;
12663;SDS011;6396;58.490;15.528;2022-10-16T09:58:20;4.93;;;3.50;;
12663;SDS011;6396;58.490;15.528;2022-10-16T10:00:50;7.60;;;3.47;;
12663;SDS011;6396;58.490;15.528;2022-10-16T10:03:25;4.50;;;3.13;;
12663;SDS011;6396;58.490;15.528;2022-10-16T10:06:00;3.67;;;2.90;;
12663;SDS011;6396;58.490;15.528;2022-10-16T10:08:33;7.10;;;3.40;;
12663;SDS011;6396;58.490;15.528;2022-10-16T10:11:00;5.17;;;3.17;;
12663;SDS011;6396;58.490;15.528;2022-10-16T10:13:26;6.13;;;3.40;;
12663;SDS011;6396;58.490;15.528;2022-10-16T10:15:55;6.50;;;3.47;;
12663;SDS011;6396;58.490;15.528;2022-10-16T10:18:22;4.40;;;3.23;;
12663;SDS011;6396;58.490;15.528;2022-10-16T10:20:58;4.47;;;2.87;;
12663;SDS011;6396;58.490;15.528;2022-10-16T10:23:27;4.77;;;3.10;;
12663;SDS011;6396;58.490;15.528;2022-10-16T10:25:56;4.30;;;3.20;;
12663;SDS011;6396;58.490;15.528;2022-10-16T10:28:39;4.07;;;3.17;;
12663;SDS011;6396;58.490;15.528;2022-10-16T10:31:19;5.50;;;3.07;;
12663;SDS011;6396;58.490;15.528;2022-10-16T10:33:52;3.60;;;3.07;;
12663;SDS011;6396;58.490;15.528;2022-10-16T10:36:28;3.90;;;3.07;;
12663;SDS011;6396;58.490;15.528;2022-10-16T10:39:00;4.10;;;3.03;;
12663;SDS011;6396;58.490;15.528;2022-10-16T10:41:38;4.47;;;2.77;;
12663;SDS011;6396;58.490;15.528;2022-10-16T10:44:28;5.03;;;2.60;;
12663;SDS011;6396;58.490;15.528;2022-10-16T10:47:08;3.87;;;2.60;;
12663;SDS011;6396;58.490;15.528;2022-10-16T10:49:48;5.57;;;2.87;;
12663;SDS011;6396;58.490;15.528;2022-10-16T10:52:29;5.23;;;2.47;;
12663;SDS011;6396;58.490;15.528;2022-10-16T10:55:10;3.30;;;2.33;;
12663;SDS011;6396;58.490;15.528;2022-10-16T10:57:53;4.90;;;2.60;;
12663;SDS011;6396;58.490;15.528;2022-10-16T11:00:33;4.10;;;2.67;;
12663;SDS011;6396;58.490;15.528;2022-10-16T11:03:11;3.50;;;2.37;;
12663;SDS011;6396;58.490;15.528;2022-10-16T11:05:52;4.73;;;2.33;;
12663;SDS011;6396;58.490;15.528;2022-10-16T11:08:25;6.17;;;2.67;;
12663;SDS011;6396;58.490;15.528;2022-10-16T11:10:58;4.40;;;2.57;;
12663;SDS011;6396;58.490;15.528;2022-10-16T11:13:30;6.70;;;2.70;;
12663;SDS011;6396;58.490;15.528;2022-10-16T11:16:03;4.30;;;2.67;;
12663;SDS011;6396;58.490;15.528;2022-10-16T11:18:43;4.27;;;2.40;;
12663;SDS011;6396;58.490;15.528;2022-10-16T11:21:16;4.37;;;2.40;;
12663;SDS011;6396;58.490;15.528;2022-10-16T11:23:47;5.57;;;2.57;;
12663;SDS011;6396;58.490;15.528;2022-10-16T11:26:19;3.57;;;1.93;;
12663;SDS011;6396;58.490;15.528;2022-10-16T11:28:49;4.73;;;2.20;;
12663;SDS011;6396;58.490;15.528;2022-10-16T11:31:19;7.37;;;2.33;;
12663;SDS011;6396;58.490;15.528;2022-10-16T11:33:54;4.43;;;2.13;;
12663;SDS011;6396;58.490;15.528;2022-10-16T11:36:30;4.07;;;2.30;;
12663;SDS011;6396;58.490;15.528;2022-10-16T11:39:04;4.47;;;2.20;;
12663;SDS011;6396;58.490;15.528;2022-10-16T11:41:44;5.87;;;2.30;;
12663;SDS011;6396;58.490;15.528;2022-10-16T11:47:08;7.03;;;2.80;;
12663;SDS011;6396;58.490;15.528;2022-10-16T11:49:43;3.10;;;2.10;;
12663;SDS011;6396;58.490;15.528;2022-10-16T11:52:14;4.20;;;2.00;;
12663;SDS011;6396;58.490;15.528;2022-10-16T11:54:47;5.80;;;2.67;;
12663;SDS011;6396;58.490;15.528;2022-10-16T11:57:19;4.20;;;2.30;;
12663;SDS011;6396;58.490;15.528;2022-10-16T11:59:51;4.83;;;2.20;;
12663;SDS011;6396;58.490;15.528;2022-10-16T12:02:28;4.27;;;1.90;;
12663;SDS011;6396;58.490;15.528;2022-10-16T12:05:05;4.17;;;2.13;;
12663;SDS011;6396;58.490;15.528;2022-10-16T12:07:42;4.53;;;2.00;;
12663;SDS011;6396;58.490;15.528;2022-10-16T12:10:21;4.80;;;2.30;;
12663;SDS011;6396;58.490;15.528;2022-10-16T12:12:49;5.47;;;3.00;;
12663;SDS011;6396;58.490;15.528;2022-10-16T12:15:21;7.17;;;2.50;;
12663;SDS011;6396;58.490;15.528;2022-10-16T12:17:50;6.90;;;2.30;;
12663;SDS011;6396;58.490;15.528;2022-10-16T12:20:31;7.13;;;2.30;;
12663;SDS011;6396;58.490;15.528;2022-10-16T12:23:02;5.30;;;2.00;;
12663;SDS011;6396;58.490;15.528;2022-10-16T12:25:31;5.07;;;2.30;;
12663;SDS011;6396;58.490;15.528;2022-10-16T12:28:00;5.73;;;2.27;;
12663;SDS011;6396;58.490;15.528;2022-10-16T12:30:30;4.03;;;1.90;;
12663;SDS011;6396;58.490;15.528;2022-10-16T12:33:00;6.70;;;2.20;;
12663;SDS011;6396;58.490;15.528;2022-10-16T12:35:31;4.43;;;1.83;;
12663;SDS011;6396;58.490;15.528;2022-10-16T12:38:14;3.60;;;2.03;;
12663;SDS011;6396;58.490;15.528;2022-10-16T12:40:44;7.20;;;2.70;;
12663;SDS011;6396;58.490;15.528;2022-10-16T12:43:22;8.00;;;2.13;;
12663;SDS011;6396;58.490;15.528;2022-10-16T12:45:59;3.33;;;2.07;;
12663;SDS011;6396;58.490;15.528;2022-10-16T12:48:27;9.03;;;2.60;;
12663;SDS011;6396;58.490;15.528;2022-10-16T12:50:56;3.37;;;2.00;;
12663;SDS011;6396;58.490;15.528;2022-10-16T12:53:23;5.50;;;2.23;;
12663;SDS011;6396;58.490;15.528;2022-10-16T12:55:58;6.00;;;2.60;;
12663;SDS011;6396;58.490;15.528;2022-10-16T12:58:36;7.00;;;2.40;;
12663;SDS011;6396;58.490;15.528;2022-10-16T13:01:17;5.97;;;2.23;;
12663;SDS011;6396;58.490;15.528;2022-10-16T13:04:10;8.13;;;2.00;;
12663;SDS011;6396;58.490;15.528;2022-10-16T13:06:56;4.17;;;1.97;;
12663;SDS011;6396;58.490;15.528;2022-10-16T13:09:44;6.07;;;2.50;;
12663;SDS011;6396;58.490;15.528;2022-10-16T13:12:30;6.53;;;2.47;;
12663;SDS011;6396;58.490;15.528;2022-10-16T13:15:19;11.17;;;2.47;;
12663;SDS011;6396;58.490;15.528;2022-10-16T13:17:56;6.33;;;1.93;;
12663;SDS011;6396;58.490;15.528;2022-10-16T13:20:32;10.87;;;2.60;;
12663;SDS011;6396;58.490;15.528;2022-10-16T13:23:06;2.73;;;1.50;;
12663;SDS011;6396;58.490;15.528;2022-10-16T13:25:43;4.80;;;2.63;;
12663;SDS011;6396;58.490;15.528;2022-10-16T13:28:21;5.37;;;1.50;;
12663;SDS011;6396;58.490;15.528;2022-10-16T13:30:51;3.73;;;1.73;;
12663;SDS011;6396;58.490;15.528;2022-10-16T13:33:21;2.00;;;1.33;;
12663;SDS011;6396;58.490;15.528;2022-10-16T13:35:56;6.47;;;1.50;;
12663;SDS011;6396;58.490;15.528;2022-10-16T13:38:25;5.93;;;1.90;;
12663;SDS011;6396;58.490;15.528;2022-10-16T13:40:55;3.20;;;1.53;;
12663;SDS011;6396;58.490;15.528;2022-10-16T13:43:25;4.03;;;2.03;;
12663;SDS011;6396;58.490;15.528;2022-10-16T13:45:58;2.13;;;1.47;;
12663;SDS011;6396;58.490;15.528;2022-10-16T13:48:27;4.03;;;1.67;;
12663;SDS011;6396;58.490;15.528;2022-10-16T13:51:03;4.70;;;1.90;;
12663;SDS011;6396;58.490;15.528;2022-10-16T13:53:34;3.10;;;1.73;;
12663;SDS011;6396;58.490;15.528;2022-10-16T13:56:03;3.13;;;1.80;;
12663;SDS011;6396;58.490;15.528;2022-10-16T13:58:31;5.03;;;1.63;;
12663;SDS011;6396;58.490;15.528;2022-10-16T14:00:59;3.70;;;1.90;;
12663;SDS011;6396;58.490;15.528;2022-10-16T14:03:36;4.93;;;1.97;;
12663;SDS011;6396;58.490;15.528;2022-10-16T14:06:06;9.03;;;2.60;;
12663;SDS011;6396;58.490;15.528;2022-10-16T14:08:43;4.90;;;1.87;;
12663;SDS011;6396;58.490;15.528;2022-10-16T14:11:19;4.90;;;2.30;;
12663;SDS011;6396;58.490;15.528;2022-10-16T14:13:48;3.13;;;1.73;;
12663;SDS011;6396;58.490;15.528;2022-10-16T14:16:16;4.73;;;1.70;;
12663;SDS011;6396;58.490;15.528;2022-10-16T14:18:46;5.10;;;2.03;;
12663;SDS011;6396;58.490;15.528;2022-10-16T14:21:21;4.03;;;1.93;;
12663;SDS011;6396;58.490;15.528;2022-10-16T14:23:50;2.83;;;1.67;;
12663;SDS011;6396;58.490;15.528;2022-10-16T14:26:18;5.87;;;1.80;;
12663;SDS011;6396;58.490;15.528;2022-10-16T14:28:46;6.27;;;1.70;;
12663;SDS011;6396;58.490;15.528;2022-10-16T14:33:57;4.03;;;1.57;;
12663;SDS011;6396;58.490;15.528;2022-10-16T14:36:25;4.60;;;1.73;;
12663;SDS011;6396;58.490;15.528;2022-10-16T14:38:59;2.97;;;1.00;;
12663;SDS011;6396;58.490;15.528;2022-10-16T14:41:46;3.47;;;1.57;;
12663;SDS011;6396;58.490;15.528;2022-10-16T14:44:14;3.87;;;1.73;;
12663;SDS011;6396;58.490;15.528;2022-10-16T14:46:47;1.70;;;1.20;;
12663;SDS011;6396;58.490;15.528;2022-10-16T14:49:15;8.63;;;1.20;;
12663;SDS011;6396;58.490;15.528;2022-10-16T14:51:49;1.40;;;1.10;;
12663;SDS011;6396;58.490;15.528;2022-10-16T14:54:20;2.60;;;1.20;;
12663;SDS011;6396;58.490;15.528;2022-10-16T14:56:48;1.23;;;1.00;;
12663;SDS011;6396;58.490;15.528;2022-10-16T14:59:22;1.63;;;0.90;;
12663;SDS011;6396;58.490;15.528;2022-10-16T15:01:54;1.50;;;0.83;;
12663;SDS011;6396;58.490;15.528;2022-10-16T15:04:22;3.90;;;1.20;;
12663;SDS011;6396;58.490;15.528;2022-10-16T15:06:50;1.17;;;0.87;;
12663;SDS011;6396;58.490;15.528;2022-10-16T15:09:39;3.17;;;1.10;;
12663;SDS011;6396;58.490;15.528;2022-10-16T15:12:06;1.77;;;1.20;;
12663;SDS011;6396;58.490;15.528;2022-10-16T15:14:33;2.07;;;1.10;;
12663;SDS011;6396;58.490;15.528;2022-10-16T15:17:01;2.03;;;0.97;;
12663;SDS011;6396;58.490;15.528;2022-10-16T15:19:29;1.60;;;1.00;;